This is the latest recevied weather packets stored in our database for station/object ZS1OSS-13. If no packets are shown the sender has not sent any weather packets the latest 10 day(s).
| Time | Temp. | Humidity | Pressure | Rain* | Wind** | Luminosity | Snow |
|---|---|---|---|---|---|---|---|
| 1777899718 | 20° C | 66% | 1012.1 hPa | 0 mm | - | 416 W/m² | - |
| 1777898205 | 20.56° C | 65% | 1012.2 hPa | 0 mm | - | 462 W/m² | - |
| 1777897902 | 20.56° C | 64% | 1012.5 hPa | 0 mm | - | 461 W/m² | - |
| 1777897598 | 20° C | 66% | 1012.5 hPa | 0 mm | - | 473 W/m² | - |
| 1777897293 | 20° C | 66% | 1012.5 hPa | 0 mm | - | 472 W/m² | - |
| 1777896990 | 20° C | 65% | 1012.4 hPa | 0 mm | - | 475 W/m² | - |
| 1777896687 | 19.44° C | 66% | 1012.6 hPa | 0 mm | - | 482 W/m² | - |
| 1777896384 | 20.56° C | 64% | 1012.6 hPa | 0 mm | - | 492 W/m² | - |
| 1777896082 | 20° C | 64% | 1012.6 hPa | 0 mm | - | 488 W/m² | - |
| 1777895780 | 20° C | 66% | 1012.7 hPa | 0 mm | - | 505 W/m² | - |
| 1777895477 | 19.44° C | 67% | 1012.6 hPa | 0 mm | - | 505 W/m² | - |
| 1777894569 | 19.44° C | 69% | 1012.6 hPa | 0 mm | - | 512 W/m² | - |
| 1777894266 | 19.44° C | 68% | 1012.5 hPa | 0 mm | - | 511 W/m² | - |
| 1777893963 | 19.44° C | 67% | 1012.4 hPa | 0 mm | - | 510 W/m² | - |
| 1777893659 | 20° C | 68% | 1012.6 hPa | 0 mm | - | 511 W/m² | - |
| 1777893355 | 20° C | 69% | 1012.7 hPa | 0 mm | - | 514 W/m² | - |
| 1777893051 | 19.44° C | 69% | 1012.8 hPa | 0 mm | - | 523 W/m² | - |
| 1777892749 | 19.44° C | 72% | 1013 hPa | 0 mm | - | 586 W/m² | - |
| 1777892444 | 19.44° C | 72% | 1012.9 hPa | 0 mm | - | 588 W/m² | - |
| 1777891535 | 19.44° C | 71% | 1013.2 hPa | 0 mm | - | 563 W/m² | - |
| 1777890931 | 18.33° C | 75% | 1013 hPa | 0 mm | - | 561 W/m² | - |
| 1777890626 | 18.33° C | 76% | 1013.4 hPa | 0 mm | - | 500 W/m² | - |
| 1777890321 | 18.89° C | 76% | 1013.3 hPa | 0 mm | - | 370 W/m² | - |
| 1777890018 | 18.89° C | 76% | 1013.2 hPa | 0 mm | - | 295 W/m² | - |
| 1777889716 | 18.89° C | 78% | 1013.2 hPa | 0 mm | - | 450 W/m² | - |
* Rain latest hour (hover to see other rain measurements)
** Current wind speed in m/s (hover to see current wind gust speed)